Time;durP1;ratioP1;P1;durP2;ratioP2;P2;SDS_P1;SDS_P2;PMS_P1;PMS_P2;Temp;Humidity;BMP_temperature;BMP_pressure;BME280_temperature;BME280_humidity;BME280_pressure;Samples;Min_cycle;Max_cycle;Signal;HPM_P1;HPM_P2
2022/07/20 00:00:10;;;;;;;16.20;14.60;;;;;;;21.30;58.47;100841.09;109216;1266;21982;-76
2022/07/20 00:03:08;;;;;;;17.40;12.90;;;;;;;21.24;58.69;100842.29;109363;1261;23030;-76
2022/07/20 00:05:41;;;;;;;18.40;12.50;;;;;;;21.19;58.75;100843.95;109465;1262;22047;-76
2022/07/20 00:08:10;;;;;;;16.40;11.90;;;;;;;21.16;58.89;100838.53;109651;1261;21970;-77
2022/07/20 00:13:26;;;;;;;16.20;13.20;;;;;;;21.13;59.26;100844.33;109844;1261;24113;-76
2022/07/20 00:15:55;;;;;;;16.40;13.80;;;;;;;21.12;59.36;100846.19;109719;1262;21979;-78
2022/07/20 00:18:24;;;;;;;16.40;13.50;;;;;;;21.12;59.42;100848.55;109631;1261;23056;-76
2022/07/20 00:20:53;;;;;;;18.40;12.40;;;;;;;21.11;59.28;100847.39;109682;1263;23683;-76
2022/07/20 00:23:22;;;;;;;16.00;11.90;;;;;;;21.10;59.36;100852.51;109573;1263;23683;-77
2022/07/20 00:25:51;;;;;;;17.90;13.30;;;;;;;21.06;59.54;100854.33;109475;1263;23049;-76
2022/07/20 00:28:20;;;;;;;21.90;14.20;;;;;;;21.00;59.63;100852.86;109296;1263;21980;-76
2022/07/20 00:30:49;;;;;;;25.50;20.20;;;;;;;20.95;59.67;100851.65;109541;1263;21991;-77
2022/07/20 00:33:18;;;;;;;20.70;16.00;;;;;;;20.89;59.57;100854.98;108826;1270;21992;-77
2022/07/20 00:35:47;;;;;;;18.80;16.00;;;;;;;20.84;59.57;100856.52;108862;1270;21986;-76
2022/07/20 00:38:16;;;;;;;20.60;13.60;;;;;;;20.79;59.75;100853.27;108808;1269;23783;-76
2022/07/20 00:40:45;;;;;;;18.10;12.70;;;;;;;20.76;59.84;100854.25;108968;1270;24516;-76
2022/07/20 00:43:15;;;;;;;20.60;12.00;;;;;;;20.73;60.00;100857.33;108395;1276;21982;-76
2022/07/20 00:45:45;;;;;;;19.00;12.60;;;;;;;20.69;60.24;100860.34;108368;1276;21990;-75
2022/07/20 00:48:14;;;;;;;14.50;12.20;;;;;;;20.66;60.15;100861.79;108637;1275;23504;-76
2022/07/20 00:50:43;;;;;;;15.50;11.50;;;;;;;20.62;60.30;100863.77;108195;1274;23068;-76
2022/07/20 00:53:12;;;;;;;14.30;12.00;;;;;;;20.55;60.23;100861.31;108353;1274;23700;-76
2022/07/20 00:55:41;;;;;;;14.00;11.50;;;;;;;20.47;60.02;100857.90;108491;1275;22221;-76
2022/07/20 00:58:10;;;;;;;16.50;12.40;;;;;;;20.39;60.21;100854.75;108443;1275;22158;-76
2022/07/20 01:00:39;;;;;;;13.70;11.30;;;;;;;20.33;60.26;100854.55;108487;1267;23645;-76
2022/07/20 01:03:08;;;;;;;13.00;9.90;;;;;;;20.29;60.10;100854.69;109056;1266;22067;-76
2022/07/20 01:05:37;;;;;;;12.40;10.20;;;;;;;20.25;60.07;100857.29;109013;1268;22355;-76
2022/07/20 01:08:06;;;;;;;13.10;10.50;;;;;;;20.21;59.84;100856.65;108901;1264;22189;-76
2022/07/20 01:10:35;;;;;;;13.90;10.50;;;;;;;20.17;59.81;100857.03;109192;1267;21991;-76
2022/07/20 01:13:04;;;;;;;16.10;11.00;;;;;;;20.14;60.01;100857.75;108776;1270;21971;-76
2022/07/20 01:15:33;;;;;;;13.20;11.50;;;;;;;20.09;60.00;100852.55;108689;1273;23062;-76
2022/07/20 01:18:02;;;;;;;14.30;11.20;;;;;;;20.04;59.98;100853.98;108703;1272;21994;-76
2022/07/20 01:20:32;;;;;;;12.90;10.80;;;;;;;19.98;60.04;100856.09;108694;1273;23852;-76
2022/07/20 01:23:01;;;;;;;13.90;10.70;;;;;;;19.94;60.24;100861.66;108693;1273;23702;-76
2022/07/20 01:25:35;;;;;;;13.10;11.30;;;;;;;19.91;60.54;100859.11;108648;1273;22100;-77
2022/07/20 01:28:13;;;;;;;15.00;10.90;;;;;;;19.88;60.55;100860.98;108796;1267;21991;-76
2022/07/20 01:30:42;;;;;;;12.70;10.70;;;;;;;19.87;60.68;100860.34;109221;1264;24385;-77
2022/07/20 01:33:11;;;;;;;16.40;11.10;;;;;;;19.85;60.72;100858.09;109444;1263;22081;-77
2022/07/20 01:35:40;;;;;;;15.70;10.60;;;;;;;19.83;60.85;100852.66;109503;1264;22047;-77
2022/07/20 01:38:09;;;;;;;14.90;10.30;;;;;;;19.81;60.76;100850.36;109581;1263;21989;-77
2022/07/20 01:40:39;;;;;;;12.70;10.20;;;;;;;19.80;60.81;100847.61;108727;1270;21979;-77
2022/07/20 01:43:08;;;;;;;13.10;10.20;;;;;;;19.76;60.85;100846.19;108670;1272;22028;-76
2022/07/20 01:45:37;;;;;;;13.50;11.40;;;;;;;19.72;61.16;100846.66;108692;1272;22061;-76
2022/07/20 01:48:06;;;;;;;13.20;11.50;;;;;;;19.69;61.48;100842.73;108821;1270;22871;-76
2022/07/20 01:50:38;;;;;;;14.00;11.30;;;;;;;19.68;61.44;100845.13;108847;1270;23613;-76
2022/07/20 01:53:07;;;;;;;;;;;;;;;19.66;61.46;100842.58;108464;1273;23059;-77
2022/07/20 01:55:36;;;;;;;13.40;10.60;;;;;;;19.57;61.83;100841.20;108576;1276;22454;-76
2022/07/20 01:58:05;;;;;;;15.10;10.60;;;;;;;19.58;62.15;100842.06;108504;1273;21981;-76
2022/07/20 02:00:35;;;;;;;18.10;12.50;;;;;;;19.62;62.32;100841.30;108662;1270;22012;-76
2022/07/20 02:03:04;;;;;;;22.50;13.50;;;;;;;19.65;62.37;100843.48;108701;1270;23054;-77
2022/07/20 02:05:33;;;;;;;25.10;13.10;;;;;;;19.66;62.40;100842.48;108334;1276;22305;-77
2022/07/20 02:08:02;;;;;;;17.50;14.20;;;;;;;19.67;62.31;100841.16;108394;1276;23103;-76
2022/07/20 02:10:31;;;;;;;17.50;13.40;;;;;;;19.67;62.10;100842.23;108433;1273;22051;-76
2022/07/20 02:13:00;;;;;;;15.40;12.20;;;;;;;19.63;62.00;100840.02;108720;1270;23686;-77
2022/07/20 02:18:17;;;;;;;15.60;13.90;;;;;;;19.58;62.05;100841.16;108689;1270;23621;-78
2022/07/20 02:20:48;;;;;;;17.60;13.70;;;;;;;19.59;62.38;100841.52;108909;1270;22008;-77
2022/07/20 02:23:17;;;;;;;17.20;13.60;;;;;;;19.60;62.41;100842.41;109140;1264;21983;-76
2022/07/20 02:25:46;;;;;;;18.60;15.20;;;;;;;19.60;62.18;100843.94;109167;1266;22412;-76
2022/07/20 02:28:15;;;;;;;21.70;15.40;;;;;;;19.60;62.16;100846.24;109351;1263;22211;-77
2022/07/20 02:30:44;;;;;;;19.30;14.10;;;;;;;19.59;61.99;100847.73;109532;1264;22018;-76
2022/07/20 02:33:13;;;;;;;21.10;15.50;;;;;;;19.58;61.91;100851.70;109339;1263;22039;-77
2022/07/20 02:35:42;;;;;;;20.50;17.50;;;;;;;19.56;61.89;100853.24;109570;1263;23718;-76
2022/07/20 02:38:11;;;;;;;22.20;18.00;;;;;;;19.53;61.87;100856.63;109572;1264;22073;-77
2022/07/20 02:40:40;;;;;;;27.30;16.30;;;;;;;19.50;61.86;100858.50;109334;1264;23590;-76
2022/07/20 02:43:09;;;;;;;19.20;14.00;;;;;;;19.47;61.93;100859.22;109491;1263;23141;-77
2022/07/20 02:45:38;;;;;;;20.50;15.20;;;;;;;19.46;62.11;100858.65;109339;1264;22067;-76
2022/07/20 02:48:07;;;;;;;20.50;15.20;;;;;;;19.41;61.82;100859.70;109205;1263;23739;-77
2022/07/20 02:50:41;;;;;;;20.20;15.20;;;;;;;19.38;61.65;100864.50;109723;1262;23689;-76
2022/07/20 02:53:12;;;;;;;25.00;16.40;;;;;;;19.36;61.69;100867.02;109066;1269;22849;-75
2022/07/20 02:55:43;;;;;;;23.50;15.90;;;;;;;19.37;61.69;100865.09;108942;1268;21978;-76
2022/07/20 02:58:12;;;;;;;22.30;16.70;;;;;;;19.38;61.58;100866.33;109244;1267;22006;-76
2022/07/20 03:00:42;;;;;;;21.20;16.50;;;;;;;19.34;61.44;100870.33;108947;1267;22109;-76
2022/07/20 03:03:12;;;;;;;26.00;17.80;;;;;;;19.33;61.40;100869.15;108934;1267;21964;-77
2022/07/20 03:05:40;;;;;;;19.90;17.60;;;;;;;19.33;61.25;100870.21;108747;1269;22236;-77
2022/07/20 03:08:09;;;;;;;21.80;16.80;;;;;;;19.30;61.20;100869.48;109003;1267;24031;-77
2022/07/20 03:10:40;;;;;;;28.50;17.70;;;;;;;19.29;61.37;100866.45;109261;1267;21988;-77
2022/07/20 03:13:09;;;;;;;21.80;16.60;;;;;;;19.27;61.27;100864.52;109344;1263;22742;-78
2022/07/20 03:15:38;;;;;;;22.00;18.60;;;;;;;19.23;61.29;100865.91;109177;1266;22027;-77
2022/07/20 03:18:07;;;;;;;18.20;16.10;;;;;;;19.16;61.41;100868.60;109505;1263;23848;-77
2022/07/20 03:20:36;;;;;;;23.90;17.90;;;;;;;19.08;61.65;100869.15;109541;1264;21984;-77
2022/07/20 03:23:05;;;;;;;20.00;16.40;;;;;;;19.04;62.15;100872.91;109189;1264;21978;-76
2022/07/20 03:25:34;;;;;;;22.80;16.00;;;;;;;19.01;62.51;100874.52;109449;1264;23778;-76
2022/07/20 03:28:03;;;;;;;20.80;16.10;;;;;;;19.02;62.89;100875.35;109545;1263;21982;-77
2022/07/20 03:30:32;;;;;;;17.40;14.00;;;;;;;19.05;63.09;100876.01;109137;1267;22023;-77
2022/07/20 03:33:01;;;;;;;17.60;13.70;;;;;;;19.08;63.15;100876.00;108851;1269;22174;-77
2022/07/20 03:35:30;;;;;;;24.00;16.10;;;;;;;19.05;62.91;100873.88;109150;1267;23134;-77
2022/07/20 03:38:00;;;;;;;21.20;15.10;;;;;;;19.01;63.07;100874.20;108520;1270;23778;-77
2022/07/20 03:40:31;;;;;;;26.00;14.50;;;;;;;19.02;63.35;100881.16;108835;1270;22421;-76
2022/07/20 03:43:00;;;;;;;24.90;14.70;;;;;;;19.06;63.34;100880.53;108694;1270;23598;-76
2022/07/20 03:45:29;;;;;;;22.80;15.20;;;;;;;19.10;63.31;100883.03;108891;1270;23204;-76
2022/07/20 03:47:58;;;;;;;21.60;13.50;;;;;;;19.14;63.18;100889.16;108898;1267;22041;-77
2022/07/20 03:50:27;;;;;;;17.20;14.80;;;;;;;19.16;62.93;100892.65;109376;1264;23651;-76
2022/07/20 03:52:56;;;;;;;18.40;13.90;;;;;;;19.17;62.80;100891.17;109242;1267;21996;-76
2022/07/20 03:55:26;;;;;;;23.80;16.40;;;;;;;19.19;62.81;100893.84;109248;1261;23666;-77
2022/07/20 03:57:55;;;;;;;19.10;14.10;;;;;;;19.23;62.62;100898.31;109934;1260;21973;-76
2022/07/20 04:00:25;;;;;;;22.60;14.10;;;;;;;19.25;62.47;100898.77;109635;1260;22272;-77
2022/07/20 04:02:54;;;;;;;22.30;15.40;;;;;;;19.30;62.41;100901.17;109764;1260;23795;-76
2022/07/20 04:05:24;;;;;;;18.10;13.70;;;;;;;19.36;62.25;100906.59;109698;1262;23639;-76
2022/07/20 04:08:03;;;;;;;;;;;;;;;;;;;;;
2022/07/20 04:10:38;;;;;;;21.40;14.10;;;;;;;19.46;61.66;100911.00;109641;1260;21992;-76
2022/07/20 04:13:07;;;;;;;22.90;15.60;;;;;;;19.46;61.19;100914.30;109628;1263;22760;-76
2022/07/20 04:15:36;;;;;;;18.10;15.10;;;;;;;19.45;60.89;100919.01;109629;1263;23150;-76
2022/07/20 04:18:10;;;;;;;18.40;14.20;;;;;;;19.46;60.57;100917.77;109400;1264;22038;-75
2022/07/20 04:20:39;;;;;;;19.10;13.90;;;;;;;19.50;60.37;100919.17;109617;1263;23136;-76
2022/07/20 04:23:08;;;;;;;22.80;15.10;;;;;;;19.56;60.36;100916.13;109330;1260;23137;-76
2022/07/20 04:25:37;;;;;;;20.20;14.60;;;;;;;19.63;60.19;100917.14;109729;1261;22049;-76
2022/07/20 04:28:06;;;;;;;18.60;14.80;;;;;;;19.70;59.96;100913.35;109579;1262;22020;-76
2022/07/20 04:30:35;;;;;;;21.50;14.30;;;;;;;19.77;59.68;100915.46;109723;1262;21970;-75
2022/07/20 04:33:04;;;;;;;21.90;15.00;;;;;;;19.85;59.65;100923.09;109942;1261;23735;-76
2022/07/20 04:35:33;;;;;;;21.40;16.70;;;;;;;19.94;59.34;100919.73;108906;1269;23131;-77
2022/07/20 04:38:03;;;;;;;19.80;16.10;;;;;;;20.03;59.36;100923.58;108864;1270;23724;-78
2022/07/20 04:40:32;;;;;;;24.60;16.10;;;;;;;20.10;59.01;100921.89;108758;1273;22260;-78
2022/07/20 04:43:04;;;;;;;17.30;15.40;;;;;;;20.19;58.97;100921.02;108673;1273;22058;-78
2022/07/20 04:45:33;;;;;;;20.00;14.80;;;;;;;20.27;58.84;100920.80;108736;1273;21999;-76
2022/07/20 04:48:03;;;;;;;19.70;16.50;;;;;;;20.36;58.75;100919.70;108427;1276;23819;-76
2022/07/20 04:50:32;;;;;;;17.70;15.60;;;;;;;20.48;58.63;100922.17;108313;1279;22063;-75
2022/07/20 04:53:01;;;;;;;22.00;16.20;;;;;;;20.61;58.46;100920.59;108237;1279;22244;-75
2022/07/20 04:55:30;;;;;;;20.10;15.40;;;;;;;20.71;58.29;100926.54;108482;1273;22162;-75
2022/07/20 04:58:00;;;;;;;21.40;17.30;;;;;;;20.79;57.99;100929.19;108789;1271;23748;-75
2022/07/20 05:00:28;;;;;;;21.50;15.50;;;;;;;20.86;57.71;100929.36;108494;1273;23077;-75
2022/07/20 05:02:58;;;;;;;19.00;15.20;;;;;;;20.93;57.39;100934.38;108666;1273;21981;-75
2022/07/20 05:05:26;;;;;;;20.60;13.50;;;;;;;21.02;57.16;100938.13;108859;1267;21977;-75
2022/07/20 05:07:55;;;;;;;14.90;13.30;;;;;;;21.12;56.76;100935.54;109163;1263;24938;-76
2022/07/20 05:10:25;;;;;;;22.80;13.80;;;;;;;21.23;56.17;100933.65;109679;1264;21970;-75
2022/07/20 05:12:54;;;;;;;20.80;14.80;;;;;;;21.35;55.83;100933.38;109602;1261;23588;-77
2022/07/20 05:15:25;;;;;;;;;;;;;;;21.47;55.36;100932.44;109698;1263;22667;-80
2022/07/20 05:17:55;;;;;;;20.50;12.70;;;;;;;21.54;55.29;100934.67;109859;1262;21972;-78
2022/07/20 05:20:24;;;;;;;17.10;13.80;;;;;;;21.70;55.45;100935.97;109632;1263;22021;-78
2022/07/20 05:22:53;;;;;;;19.20;12.60;;;;;;;21.91;55.21;100937.61;109207;1263;22438;-80
2022/07/20 05:25:22;;;;;;;23.70;14.80;;;;;;;22.10;54.63;100936.98;109998;1261;21976;-80
2022/07/20 05:27:57;;;;;;;16.60;13.70;;;;;;;22.29;54.31;100939.66;108856;1267;23053;-79
2022/07/20 05:30:26;;;;;;;20.10;14.30;;;;;;;22.50;54.25;100940.60;109050;1268;23808;-80
2022/07/20 05:32:55;;;;;;;21.50;14.40;;;;;;;22.72;53.97;100938.21;108853;1273;22043;-81
2022/07/20 05:35:25;;;;;;;22.10;14.60;;;;;;;22.98;53.83;100940.80;108427;1276;21986;-78
2022/07/20 05:37:53;;;;;;;19.50;14.20;;;;;;;23.23;53.37;100939.25;108435;1277;22000;-79
2022/07/20 05:40:22;;;;;;;17.80;12.80;;;;;;;23.48;52.85;100935.73;108431;1277;22434;-78
2022/07/20 05:42:52;;;;;;;18.90;13.80;;;;;;;23.73;52.57;100938.20;108355;1277;23064;-79
2022/07/20 05:45:21;;;;;;;19.00;14.20;;;;;;;24.01;52.21;100937.46;108288;1277;22056;-79
2022/07/20 05:47:50;;;;;;;15.90;12.80;;;;;;;24.30;51.68;100940.52;108687;1273;22870;-81
2022/07/20 05:50:19;;;;;;;16.30;13.60;;;;;;;24.62;51.29;100938.84;109026;1267;22476;-79
2022/07/20 05:52:48;;;;;;;17.50;12.00;;;;;;;24.98;50.45;100936.17;109339;1268;21981;-82
2022/07/20 05:55:18;;;;;;;18.50;11.40;;;;;;;25.36;49.65;100932.26;109146;1267;22019;-81
2022/07/20 05:57:47;;;;;;;17.80;12.00;;;;;;;25.80;48.76;100930.71;109167;1267;23719;-81
2022/07/20 06:00:17;;;;;;;14.80;10.40;;;;;;;26.24;48.30;100932.92;109085;1269;22762;-80
2022/07/20 06:02:49;;;;;;;16.30;11.50;;;;;;;26.76;47.20;100933.66;109089;1270;22017;-79
2022/07/20 06:05:18;;;;;;;13.70;10.20;;;;;;;27.21;45.40;100936.05;109052;1270;23056;-80
2022/07/20 06:07:47;;;;;;;15.30;10.20;;;;;;;27.65;44.38;100940.83;108877;1270;22776;-81
2022/07/20 06:10:16;;;;;;;17.30;10.10;;;;;;;28.05;43.25;100937.35;109029;1268;23699;-81
2022/07/20 06:12:45;;;;;;;17.50;9.50;;;;;;;28.47;42.50;100939.39;108591;1274;22008;-83
2022/07/20 06:15:19;;;;;;;13.80;9.30;;;;;;;28.82;41.05;100937.23;108354;1279;21991;-80
2022/07/20 06:17:48;;;;;;;17.20;8.40;;;;;;;29.15;40.19;100934.86;108199;1282;22002;-80
2022/07/20 06:20:18;;;;;;;17.10;8.90;;;;;;;29.45;39.49;100940.30;108002;1280;24442;-80
2022/07/20 06:22:48;;;;;;;11.70;8.70;;;;;;;29.75;38.78;100945.83;108332;1281;22014;-80
2022/07/20 06:25:20;;;;;;;16.40;8.00;;;;;;;30.05;38.28;100942.13;107709;1283;22077;-80
2022/07/20 06:27:49;;;;;;;12.70;7.20;;;;;;;30.34;37.75;100945.85;107937;1282;22015;-79
2022/07/20 06:30:20;;;;;;;12.50;7.60;;;;;;;30.65;36.62;100951.42;108093;1279;22522;-80
2022/07/20 06:32:53;;;;;;;13.90;7.30;;;;;;;30.93;35.77;100951.48;108446;1273;21974;-80
2022/07/20 06:35:22;;;;;;;16.80;7.70;;;;;;;31.12;34.95;100955.08;108728;1273;22066;-81
2022/07/20 06:37:51;;;;;;;12.30;7.30;;;;;;;31.28;34.60;100957.42;108691;1273;23063;-80
2022/07/20 06:40:20;;;;;;;14.10;7.90;;;;;;;31.49;34.45;100955.74;108660;1270;21990;-79
2022/07/20 06:42:49;;;;;;;17.20;9.90;;;;;;;31.76;33.70;100959.85;108989;1264;21981;-81
2022/07/20 06:45:20;;;;;;;17.20;8.40;;;;;;;32.05;33.29;100965.24;109855;1263;22043;-80
2022/07/20 06:47:49;;;;;;;14.50;7.70;;;;;;;32.34;32.90;100959.59;109368;1266;21976;-80
2022/07/20 06:50:19;;;;;;;12.80;8.00;;;;;;;32.53;31.98;100955.41;109649;1260;22025;-80
2022/07/20 06:52:48;;;;;;;13.00;8.00;;;;;;;32.73;32.04;100956.02;109455;1265;22063;-80
2022/07/20 06:55:17;;;;;;;11.00;7.60;;;;;;;33.03;31.72;100956.89;109603;1264;22721;-80
2022/07/20 06:57:49;;;;;;;15.90;7.50;;;;;;;33.32;31.05;100955.39;109475;1264;23708;-79
2022/07/20 07:00:20;;;;;;;11.60;7.60;;;;;;;33.54;30.46;100955.75;109845;1258;24565;-80
2022/07/20 07:02:49;;;;;;;12.50;7.30;;;;;;;33.80;30.03;100954.36;109616;1260;22999;-80
2022/07/20 07:05:22;;;;;;;10.50;7.40;;;;;;;34.03;29.64;100957.02;109889;1263;21971;-79
2022/07/20 07:07:57;;;;;;;9.40;6.90;;;;;;;34.11;28.96;100959.17;109444;1261;22020;-79
2022/07/20 07:10:32;;;;;;;12.20;6.60;;;;;;;34.12;28.71;100959.05;109790;1261;21974;-79
2022/07/20 07:13:08;;;;;;;6.80;5.90;;;;;;;34.19;28.41;100957.61;109651;1263;23566;-80
2022/07/20 07:15:41;;;;;;;11.80;6.40;;;;;;;34.30;28.32;100960.65;109680;1263;21972;-79
2022/07/20 07:18:15;;;;;;;9.30;5.90;;;;;;;34.39;27.94;100962.84;109643;1263;23052;-78
2022/07/20 07:20:44;;;;;;;12.60;5.90;;;;;;;34.50;27.51;100959.53;109820;1261;21959;-80
2022/07/20 07:23:15;;;;;;;8.50;5.50;;;;;;;34.56;26.91;100954.25;109163;1267;23807;-80
2022/07/20 07:25:46;;;;;;;12.70;6.20;;;;;;;34.53;27.31;100952.50;109071;1267;23039;-80
2022/07/20 07:28:16;;;;;;;13.10;5.90;;;;;;;34.67;27.11;100952.94;109120;1270;23085;-80
2022/07/20 07:30:45;;;;;;;15.10;6.10;;;;;;;34.79;27.08;100950.61;109230;1268;23777;-80
2022/07/20 07:33:24;;;;;;;8.40;5.30;;;;;;;34.92;26.87;100949.56;109314;1267;23054;-80
2022/07/20 07:35:58;;;;;;;8.80;5.60;;;;;;;35.03;26.18;100953.63;108976;1270;21980;-80
2022/07/20 07:38:32;;;;;;;11.30;5.50;;;;;;;35.07;25.86;100953.98;109207;1267;22443;-79
2022/07/20 07:41:03;;;;;;;12.90;5.40;;;;;;;35.16;26.05;100950.80;109170;1263;23667;-81
2022/07/20 07:43:36;;;;;;;13.10;5.50;;;;;;;35.18;25.58;100951.78;109993;1260;21964;-79
2022/07/20 07:46:05;;;;;;;11.10;5.30;;;;;;;35.21;25.66;100949.33;109392;1263;22189;-80
2022/07/20 07:48:36;;;;;;;10.80;5.70;;;;;;;35.29;25.51;100950.90;109738;1260;21981;-80
2022/07/20 07:51:05;;;;;;;7.80;5.00;;;;;;;35.34;25.64;100948.35;108917;1267;21978;-80
2022/07/20 07:53:34;;;;;;;7.40;5.10;;;;;;;35.48;25.49;100950.84;109160;1266;22496;-80
2022/07/20 07:56:03;;;;;;;7.10;4.60;;;;;;;35.63;25.06;100950.42;109155;1267;21979;-80
2022/07/20 07:58:32;;;;;;;8.40;5.30;;;;;;;35.75;25.38;100948.77;109162;1267;22228;-79
2022/07/20 08:01:01;;;;;;;7.50;4.90;;;;;;;35.94;24.90;100948.86;109066;1267;23047;-79
2022/07/20 08:03:30;;;;;;;10.60;5.50;;;;;;;36.00;24.84;100950.33;109129;1267;22039;-80
2022/07/20 08:06:03;;;;;;;7.00;5.00;;;;;;;36.10;24.20;100952.96;108935;1267;23059;-80
2022/07/20 08:08:32;;;;;;;7.00;5.00;;;;;;;36.07;24.13;100952.13;109127;1263;24212;-79
2022/07/20 08:11:01;;;;;;;10.20;5.20;;;;;;;36.19;24.07;100950.80;109807;1261;23139;-80
2022/07/20 08:13:30;;;;;;;7.80;5.50;;;;;;;36.34;23.62;100946.18;109727;1263;22398;-80
2022/07/20 08:16:00;;;;;;;10.10;4.80;;;;;;;36.49;23.77;100938.17;109228;1263;23810;-79
2022/07/20 08:18:29;;;;;;;10.30;5.40;;;;;;;36.67;23.30;100935.63;109639;1260;23662;-80
2022/07/20 08:20:57;;;;;;;8.90;4.40;;;;;;;36.79;23.35;100935.56;109653;1263;22060;-80
2022/07/20 08:23:29;;;;;;;11.70;5.80;;;;;;;37.01;22.68;100941.73;109642;1263;21979;-79
2022/07/20 08:25:58;;;;;;;11.90;5.50;;;;;;;37.10;21.93;100943.45;109662;1263;23067;-80
2022/07/20 08:28:27;;;;;;;9.80;5.10;;;;;;;37.02;21.75;100940.69;109469;1263;22448;-79
2022/07/20 08:31:00;;;;;;;;;;;;;;;36.96;21.84;100937.21;109601;1263;23142;-79
2022/07/20 08:33:30;;;;;;;6.10;4.40;;;;;;;36.95;22.18;100935.30;109687;1264;23691;-79
2022/07/20 08:35:59;;;;;;;12.60;5.40;;;;;;;37.13;22.42;100934.74;109663;1264;21979;-82
2022/07/20 08:38:28;;;;;;;7.70;4.40;;;;;;;37.38;21.97;100935.18;109842;1263;21965;-78
2022/07/20 08:40:58;;;;;;;8.10;4.50;;;;;;;37.51;21.81;100934.84;109764;1263;22432;-80
2022/07/20 08:43:26;;;;;;;9.60;4.40;;;;;;;37.63;21.62;100934.73;109729;1263;21990;-81
2022/07/20 08:45:56;;;;;;;8.10;3.70;;;;;;;37.71;20.74;100935.42;109677;1263;22647;-80
2022/07/20 08:48:26;;;;;;;10.50;4.60;;;;;;;37.69;20.30;100929.11;109655;1263;22043;-79
2022/07/20 08:50:56;;;;;;;7.20;4.00;;;;;;;37.69;20.10;100928.18;109542;1263;22000;-78
2022/07/20 08:53:25;;;;;;;8.70;4.00;;;;;;;37.77;20.06;100929.73;109514;1263;22055;-80
2022/07/20 08:55:54;;;;;;;8.40;4.50;;;;;;;37.84;20.28;100930.70;109482;1264;22082;-80
2022/07/20 08:58:23;;;;;;;7.60;3.80;;;;;;;38.03;20.68;100928.66;109671;1263;22015;-79
2022/07/20 09:00:52;;;;;;;6.30;4.30;;;;;;;38.04;19.13;100929.23;109800;1263;24203;-79
2022/07/20 09:03:21;;;;;;;7.70;3.40;;;;;;;37.86;18.45;100929.04;109202;1264;23142;-79
2022/07/20 09:06:06;;;;;;;18.40;3.90;;;;;;;37.70;18.17;100930.66;109594;1263;23045;-80
2022/07/20 09:08:35;;;;;;;7.90;4.20;;;;;;;37.74;18.46;100933.35;109623;1263;23056;-79
2022/07/20 09:11:04;;;;;;;6.80;4.00;;;;;;;37.86;18.71;100929.30;109650;1263;22073;-79
2022/07/20 09:13:36;;;;;;;8.10;4.20;;;;;;;38.05;18.29;100929.66;109906;1260;21993;-80
2022/07/20 09:16:05;;;;;;;7.80;4.00;;;;;;;37.98;18.22;100927.91;109118;1267;23068;-79
2022/07/20 09:18:34;;;;;;;5.40;3.50;;;;;;;38.06;18.35;100927.51;109216;1267;22168;-79
2022/07/20 09:21:10;;;;;;;7.20;3.80;;;;;;;38.19;18.12;100926.29;109189;1267;23067;-79
2022/07/20 09:23:48;;;;;;;8.60;7.00;;;;;;;38.36;17.85;100930.13;109178;1267;22034;-79
2022/07/20 09:26:18;;;;;;;8.90;3.70;;;;;;;38.37;17.26;100930.80;109296;1267;22018;-79
2022/07/20 09:28:53;;;;;;;3.80;3.40;;;;;;;38.16;17.63;100926.13;109289;1267;21983;-80
2022/07/20 09:31:33;;;;;;;8.10;3.70;;;;;;;38.14;18.37;100924.56;109067;1267;23597;-78
2022/07/20 09:34:11;;;;;;;4.20;3.20;;;;;;;38.09;18.18;100921.62;109342;1263;22060;-78
2022/07/20 09:36:44;;;;;;;7.30;4.00;;;;;;;38.05;18.45;100916.98;109800;1263;22042;-82
2022/07/20 09:39:22;;;;;;;6.40;3.10;;;;;;;38.13;17.67;100912.08;109143;1272;21988;-82
2022/07/20 09:41:54;;;;;;;7.20;3.40;;;;;;;38.17;17.48;100909.21;109126;1270;21993;-81
2022/07/20 09:44:30;;;;;;;8.40;3.10;;;;;;;38.26;17.47;100908.11;109162;1270;23079;-80
2022/07/20 09:47:11;;;;;;;7.30;3.40;;;;;;;38.34;17.33;100909.73;108940;1270;23118;-80
2022/07/20 09:49:43;;;;;;;5.30;3.70;;;;;;;38.45;17.71;100906.64;109167;1270;23015;-80
2022/07/20 09:52:13;;;;;;;5.10;3.60;;;;;;;38.65;17.45;100901.38;108862;1270;22374;-82
2022/07/20 09:55:02;;;;;;;9.50;3.70;;;;;;;38.67;17.38;100899.08;108891;1270;23847;-81
2022/07/20 09:57:31;;;;;;;12.70;3.80;;;;;;;38.58;17.89;100894.45;109053;1266;21997;-81
2022/07/20 10:00:01;;;;;;;7.40;4.30;;;;;;;38.52;18.27;100894.71;109528;1263;22082;-80
2022/07/20 10:02:41;;;;;;;10.80;4.50;;;;;;;38.57;18.40;100897.89;109764;1264;21971;-81
2022/07/20 10:05:11;;;;;;;6.90;4.10;;;;;;;38.63;17.70;100899.66;109826;1263;23749;-80
2022/07/20 10:07:43;;;;;;;6.70;4.20;;;;;;;38.60;17.07;100896.79;109514;1267;22433;-81
2022/07/20 10:10:13;;;;;;;5.30;3.20;;;;;;;38.49;16.61;100895.56;109414;1267;22042;-80
2022/07/20 10:12:43;;;;;;;5.10;3.60;;;;;;;38.31;16.62;100895.27;109146;1267;21978;-80
2022/07/20 10:15:24;;;;;;;7.20;3.70;;;;;;;38.39;16.69;100893.83;109268;1267;23671;-79
2022/07/20 10:17:54;;;;;;;5.40;3.40;;;;;;;38.51;16.50;100892.02;109132;1267;21999;-79
2022/07/20 10:20:35;;;;;;;5.00;3.30;;;;;;;38.43;17.45;100892.77;109095;1270;23061;-82
2022/07/20 10:23:14;;;;;;;9.20;3.50;;;;;;;38.44;17.65;100891.07;109076;1270;22018;-81
2022/07/20 10:25:47;;;;;;;5.40;3.60;;;;;;;38.30;17.05;100889.73;108992;1267;21995;-82
2022/07/20 10:28:33;;;;;;;9.50;8.50;;;;;;;38.22;17.38;100884.33;108878;1267;24353;-80
2022/07/20 10:31:16;;;;;;;13.30;4.80;;;;;;;38.15;17.11;100884.71;109157;1266;22004;-81
2022/07/20 10:33:45;;;;;;;6.20;3.50;;;;;;;38.08;16.96;100879.02;109271;1267;21986;-82
2022/07/20 10:39:44;;;;;;;7.90;3.40;;;;;;;38.06;17.13;100875.33;108997;1267;23158;-81
2022/07/20 10:42:46;;;;;;;4.40;3.90;;;;;;;37.94;17.22;100871.07;108795;1271;23069;-81
2022/07/20 10:45:15;;;;;;;5.90;4.10;;;;;;;37.69;17.11;100865.58;108984;1270;21987;-81
2022/07/20 10:48:11;;;;;;;8.00;6.50;;;;;;;37.62;17.35;100865.78;108894;1273;21990;-81
2022/07/20 10:50:49;;;;;;;7.50;4.40;;;;;;;37.44;17.36;100863.91;108340;1279;22023;-81
2022/07/20 10:53:24;;;;;;;7.30;3.90;;;;;;;37.28;17.42;100864.02;108304;1279;22063;-82
2022/07/20 10:55:59;;;;;;;5.50;3.60;;;;;;;37.27;17.49;100861.31;108155;1283;23708;-80
2022/07/20 10:58:45;;;;;;;6.70;4.00;;;;;;;37.22;17.48;100863.81;108027;1283;24361;-80
2022/07/20 11:01:15;;;;;;;6.20;4.10;;;;;;;37.05;17.64;100859.88;108277;1276;22009;-79
2022/07/20 11:03:48;;;;;;;;;;;;;;;36.96;17.91;100861.45;108392;1279;21975;-80
2022/07/20 11:06:21;;;;;;;4.70;3.90;;;;;;;36.77;17.87;100862.65;108444;1276;24396;-80
2022/07/20 11:08:57;;;;;;;7.80;4.00;;;;;;;36.55;18.11;100859.48;108271;1276;21995;-79
2022/07/20 11:11:32;;;;;;;9.40;4.50;;;;;;;36.41;18.36;100858.98;108336;1276;22007;-80
2022/07/20 11:14:05;;;;;;;4.60;4.00;;;;;;;36.34;18.55;100860.42;108221;1279;22050;-79
2022/07/20 11:16:36;;;;;;;7.80;4.80;;;;;;;36.31;19.09;100856.45;107914;1285;23074;-80
2022/07/20 11:19:06;;;;;;;5.70;4.40;;;;;;;36.29;19.28;100856.42;108085;1285;21999;-81
2022/07/20 11:21:44;;;;;;;6.30;4.30;;;;;;;36.19;18.78;100852.70;108034;1280;22035;-82
2022/07/20 11:24:27;;;;;;;5.70;4.20;;;;;;;36.00;18.57;100856.74;108326;1279;23162;-84
2022/07/20 11:26:56;;;;;;;5.20;4.00;;;;;;;35.86;18.62;100858.27;108017;1283;23628;-80
2022/07/20 11:29:33;;;;;;;8.40;4.00;;;;;;;35.73;18.30;100855.76;108490;1276;22011;-83
2022/07/20 11:32:09;;;;;;;6.70;4.80;;;;;;;35.59;18.38;100853.64;108726;1272;22321;-84
2022/07/20 11:34:53;;;;;;;7.20;4.20;;;;;;;35.49;18.54;100849.55;108602;1274;22000;-83